BAW29 EGKK-LFQQ
Flight info
| Callsign | BAW29 |
|---|---|
| Flight time | N/A |
| Altitude | 31000 |
| Route | FRANE CLN L620 REDFA LFQQ/26 |
| Aircraft | A20N/M-SDE2E3FGHIRWXY/LB1 |
Departure
| Time | N/A |
|---|---|
| Airport | London Gatwick Airport (EGKK) |
Arrival
| Time | 2026-04-16 20:23 |
|---|---|
| Airport | Lille Airport (LFQQ) |
| Time | Latitude | Longitude | Altitude | Speed | Heading |
|---|---|---|---|---|---|
| 2026-04-16 20:11 | 50.66271 | 2.47171 | 20517 ft | 437 kts | 183° |
| 2026-04-16 20:11 | 50.63277 | 2.47705 | 19614 ft | 431 kts | 163° |
| 2026-04-16 20:11 | 50.60595 | 2.49653 | 18838 ft | 420 kts | 146° |
| 2026-04-16 20:11 | 50.58426 | 2.52717 | 17461 ft | 424 kts | 128° |
| 2026-04-16 20:12 | 50.56975 | 2.56760 | 16184 ft | 426 kts | 110° |
| 2026-04-16 20:12 | 50.56150 | 2.61188 | 15108 ft | 421 kts | 103° |
| 2026-04-16 20:12 | 50.55531 | 2.65665 | 14054 ft | 415 kts | 102° |
| 2026-04-16 20:12 | 50.54943 | 2.70078 | 13008 ft | 409 kts | 102° |
| 2026-04-16 20:13 | 50.54364 | 2.74435 | 12053 ft | 402 kts | 102° |
| 2026-04-16 20:13 | 50.53806 | 2.78626 | 11599 ft | 382 kts | 102° |
| 2026-04-16 20:13 | 50.53275 | 2.82613 | 11275 ft | 362 kts | 102° |
| 2026-04-16 20:13 | 50.52772 | 2.86387 | 10981 ft | 342 kts | 102° |
| 2026-04-16 20:14 | 50.52304 | 2.89898 | 10738 ft | 324 kts | 102° |
| 2026-04-16 20:14 | 50.51853 | 2.93279 | 10510 ft | 307 kts | 102° |
| 2026-04-16 20:14 | 50.51560 | 2.95468 | 10301 ft | 299 kts | 102° |
| 2026-04-16 20:14 | 50.51138 | 2.98628 | 9871 ft | 292 kts | 102° |
| 2026-04-16 20:15 | 50.50722 | 3.01733 | 9345 ft | 289 kts | 102° |
| 2026-04-16 20:15 | 50.50309 | 3.04817 | 8803 ft | 287 kts | 102° |
| 2026-04-16 20:15 | 50.49900 | 3.07868 | 8268 ft | 284 kts | 102° |
| 2026-04-16 20:15 | 50.49495 | 3.10900 | 7731 ft | 282 kts | 101° |
| 2026-04-16 20:16 | 50.49377 | 3.13956 | 7185 ft | 280 kts | 86° |
| 2026-04-16 20:16 | 50.49584 | 3.16978 | 6753 ft | 274 kts | 82° |
| 2026-04-16 20:16 | 50.49837 | 3.19890 | 6457 ft | 264 kts | 82° |
| 2026-04-16 20:16 | 50.50086 | 3.22708 | 6089 ft | 258 kts | 82° |
| 2026-04-16 20:17 | 50.50332 | 3.25478 | 5659 ft | 255 kts | 82° |
| 2026-04-16 20:17 | 50.50575 | 3.28225 | 5213 ft | 253 kts | 82° |
| 2026-04-16 20:17 | 50.50816 | 3.30952 | 4768 ft | 251 kts | 82° |
| 2026-04-16 20:17 | 50.51058 | 3.33652 | 4421 ft | 245 kts | 80° |
| 2026-04-16 20:18 | 50.51676 | 3.36047 | 4213 ft | 230 kts | 50° |
| 2026-04-16 20:18 | 50.52905 | 3.37469 | 3953 ft | 215 kts | 21° |
| 2026-04-16 20:18 | 50.54326 | 3.38095 | 3522 ft | 211 kts | 4° |
| 2026-04-16 20:18 | 50.55716 | 3.37646 | 3036 ft | 209 kts | 329° |
| 2026-04-16 20:19 | 50.56683 | 3.36040 | 2672 ft | 199 kts | 299° |
| 2026-04-16 20:19 | 50.57256 | 3.34158 | 2410 ft | 184 kts | 293° |
| 2026-04-16 20:19 | 50.57744 | 3.32326 | 1997 ft | 180 kts | 292° |
| 2026-04-16 20:19 | 50.58207 | 3.30554 | 1779 ft | 167 kts | 292° |
| 2026-04-16 20:20 | 50.58614 | 3.28995 | 1777 ft | 144 kts | 292° |
| 2026-04-16 20:20 | 50.58989 | 3.27560 | 1768 ft | 141 kts | 292° |
| 2026-04-16 20:20 | 50.59364 | 3.26128 | 1753 ft | 142 kts | 292° |
| 2026-04-16 20:20 | 50.59615 | 3.24657 | 1738 ft | 139 kts | 258° |
| 2026-04-16 20:21 | 50.59213 | 3.23270 | 1644 ft | 144 kts | 239° |
| 2026-04-16 20:21 | 50.58693 | 3.21937 | 1399 ft | 139 kts | 239° |
| 2026-04-16 20:21 | 50.58261 | 3.20588 | 1303 ft | 142 kts | 248° |
| 2026-04-16 20:21 | 50.57906 | 3.19133 | 1057 ft | 140 kts | 251° |
| 2026-04-16 20:22 | 50.57622 | 3.17687 | 828 ft | 137 kts | 255° |
| 2026-04-16 20:22 | 50.57394 | 3.16249 | 654 ft | 136 kts | 257° |
| 2026-04-16 20:22 | 50.57202 | 3.14814 | 488 ft | 132 kts | 258° |
| 2026-04-16 20:22 | 50.57002 | 3.13364 | 370 ft | 145 kts | 258° |
| 2026-04-16 20:23 | 50.56799 | 3.11903 | 222 ft | 134 kts | 257° |
| 2026-04-16 20:23 | 50.56605 | 3.10550 | 166 ft | 116 kts | 257° |
| 2026-04-16 20:23 | 50.56470 | 3.09588 | 168 ft | 51 kts | 257° |
| 2026-04-16 20:23 | 50.56428 | 3.09287 | 166 ft | 25 kts | 258° |
| 2026-04-16 20:24 | 50.56449 | 3.09072 | 168 ft | 12 kts | 339° |
| 2026-04-16 20:24 | 50.56505 | 3.09056 | 165 ft | 8 kts | 349° |
| 2026-04-16 20:24 | 50.56571 | 3.09056 | 164 ft | 11 kts | 22° |
| 2026-04-16 20:24 | 50.56606 | 3.09130 | 164 ft | 7 kts | 76° |
| 2026-04-16 20:25 | 50.56618 | 3.09209 | 166 ft | 7 kts | 76° |
| 2026-04-16 20:25 | 50.56627 | 3.09279 | 167 ft | 8 kts | 78° |
| 2026-04-16 20:25 | 50.56640 | 3.09371 | 168 ft | 10 kts | 77° |
| 2026-04-16 20:25 | 50.56664 | 3.09533 | 170 ft | 18 kts | 77° |
| 2026-04-16 20:26 | 50.56692 | 3.09718 | 170 ft | 18 kts | 77° |
| 2026-04-16 20:26 | 50.56717 | 3.09909 | 169 ft | 18 kts | 78° |
| 2026-04-16 20:26 | 50.56742 | 3.10092 | 169 ft | 17 kts | 76° |
| 2026-04-16 20:26 | 50.56773 | 3.10293 | 164 ft | 19 kts | 72° |
| 2026-04-16 20:27 | 50.56823 | 3.10334 | 164 ft | 11 kts | 347° |
| 2026-04-16 20:27 | 50.56914 | 3.10302 | 163 ft | 14 kts | 349° |
| 2026-04-16 20:27 | 50.56991 | 3.10364 | 160 ft | 14 kts | 71° |
| 2026-04-16 20:27 | 50.57013 | 3.10504 | 160 ft | 11 kts | 70° |
| 2026-04-16 20:28 | 50.57033 | 3.10531 | 161 ft | 2 kts | 354° |
| 2026-04-16 20:28 | 50.57048 | 3.10526 | 161 ft | 2 kts | 347° |
| 2026-04-16 20:28 | 50.57064 | 3.10535 | 161 ft | 2 kts | 28° |
| 2026-04-16 20:28 | 50.57082 | 3.10550 | 161 ft | 0 kts | 27° |